CheckWX is a tool to help pilots better visualize weather data.  It is not intended as a substitute for an official pre-flight weather briefing.

08:15:30 UTC

EBAW TAF
Antwerp International (Deurne) Airport
Antwerp, Belgium
TAF EBAW 120514Z 1206/1215 21010KT 9999 SCT020 SCT040 PROB30 TEMPO 1206/1212 SCT008 BKN012

Dec-12@
06:00 UTC

Dec-12 @ 06:00 UTC

Dec-12@
15:00 UTC

Dec-12 @ 15:00 UTC

TAF EBAW 120514Z 1206/1215 21010KT 9999 SCT020 SCT040
Wind
  • 210° at 10 KTS
Cloud Levels
  • Scattered at 2,000' AGL
  • Scattered at 4,000' AGL

Dec-12@
06:00 UTC

Dec-12 @ 06:00 UTC

Dec-12@
12:00 UTC

Dec-12 @ 12:00 UTC

PROB30 TEMPO 1206/1212 SCT008 BKN012

Temporary - 30% Likelihood

Temporary - 30% Likelihood during this time.

Cloud Levels
  • Scattered at 800' AGL
  • Broken at 1,200' AGL